Time;durP1;ratioP1;P1;durP2;ratioP2;P2;SDS_P1;SDS_P2;PMS_P1;PMS_P2;Temp;Humidity;BMP_temperature;BMP_pressure;BME280_temperature;BME280_humidity;BME280_pressure;Samples;Min_cycle;Max_cycle;Signal;HPM_P1;HPM_P2
2020/12/04 00:00:13;;;;;;;14.05;9.52;;;1.80;84.60;;;;;;5014912;28;20107;-66
2020/12/04 00:02:40;;;;;;;12.50;8.18;;;1.80;84.20;;;;;;5009245;28;20019;-66
2020/12/04 00:05:07;;;;;;;13.10;8.40;;;1.90;83.10;;;;;;5014280;28;20029;-66
2020/12/04 00:07:33;;;;;;;10.88;7.00;;;2.00;83.10;;;;;;5014841;28;20151;-66
2020/12/04 00:09:59;;;;;;;12.45;7.85;;;2.00;82.40;;;;;;5017175;28;20029;-66
2020/12/04 00:12:25;;;;;;;17.90;8.38;;;2.00;82.30;;;;;;5013079;28;20030;-66
2020/12/04 00:14:51;;;;;;;11.57;7.88;;;2.10;82.10;;;;;;5009902;28;20038;-66
2020/12/04 00:17:17;;;;;;;11.48;7.53;;;2.10;82.10;;;;;;5011670;28;20025;-66
2020/12/04 00:19:43;;;;;;;10.65;6.82;;;2.10;81.80;;;;;;5016035;28;20083;-66
2020/12/04 00:22:08;;;;;;;9.10;6.40;;;2.10;81.40;;;;;;5016263;28;20030;-66
2020/12/04 00:24:34;;;;;;;10.40;6.25;;;2.10;80.90;;;;;;5017298;28;20028;-66
2020/12/04 00:27:00;;;;;;;9.65;6.15;;;2.10;80.70;;;;;;5017442;28;20026;-66
2020/12/04 00:29:27;;;;;;;12.50;7.03;;;2.20;80.40;;;;;;5014153;28;20034;-66
2020/12/04 00:31:57;;;;;;;8.98;6.18;;;2.20;80.10;;;;;;5013766;28;20084;-67
2020/12/04 00:34:24;;;;;;;7.72;5.47;;;2.30;79.10;;;;;;5014285;28;20030;-66
2020/12/04 00:36:51;;;;;;;9.65;6.38;;;2.40;79.10;;;;;;5015134;28;20031;-67
2020/12/04 00:39:17;;;;;;;10.90;7.15;;;2.40;79.40;;;;;;5015261;28;20112;-66
2020/12/04 00:41:44;;;;;;;10.90;6.95;;;2.30;79.70;;;;;;5015261;28;20402;-67
2020/12/04 00:44:10;;;;;;;10.25;7.15;;;2.30;80.10;;;;;;5015833;28;20026;-67
2020/12/04 00:46:36;;;;;;;10.35;7.05;;;2.30;81.00;;;;;;5012225;28;20109;-67
2020/12/04 00:49:02;;;;;;;10.88;6.90;;;2.20;81.80;;;;;;5015686;28;20136;-67
2020/12/04 00:51:28;;;;;;;10.75;6.88;;;2.20;81.30;;;;;;5015587;28;20122;-67
2020/12/04 00:53:54;;;;;;;11.38;6.75;;;2.30;81.20;;;;;;5016627;28;20112;-67
2020/12/04 00:56:21;;;;;;;10.07;6.18;;;2.30;81.80;;;;;;5012621;28;20125;-67
2020/12/04 00:58:50;;;;;;;10.98;6.40;;;2.30;81.90;;;;;;5014446;28;20036;-67
2020/12/04 01:01:16;;;;;;;10.88;6.43;;;2.30;82.10;;;;;;5009783;28;20303;-67
2020/12/04 01:03:42;;;;;;;11.13;7.15;;;2.30;82.50;;;;;;5015589;28;20026;-67
2020/12/04 01:06:12;;;;;;;11.45;7.00;;;2.30;82.50;;;;;;5016266;28;20735;-67
2020/12/04 01:08:38;;;;;;;8.70;6.13;;;2.30;82.50;;;;;;5016062;28;20083;-67
2020/12/04 01:11:04;;;;;;;10.75;6.95;;;2.30;81.60;;;;;;5016231;28;20375;-66
2020/12/04 01:13:30;;;;;;;14.20;7.10;;;2.40;80.70;;;;;;5008791;28;20057;-67
2020/12/04 01:15:56;;;;;;;8.25;6.20;;;2.50;79.80;;;;;;5010529;28;20132;-67
2020/12/04 01:18:22;;;;;;;9.73;6.88;;;2.60;79.30;;;;;;5015226;28;20126;-67
2020/12/04 01:20:48;;;;;;;10.82;7.10;;;2.50;81.60;;;;;;5016247;28;20025;-67
2020/12/04 01:23:14;;;;;;;12.10;6.90;;;2.40;81.00;;;;;;5015292;28;20083;-67
2020/12/04 01:25:40;;;;;;;10.85;6.78;;;2.40;82.30;;;;;;5015042;28;20121;-67
2020/12/04 01:28:06;;;;;;;10.13;7.15;;;2.30;82.40;;;;;;5014351;28;20025;-68
2020/12/04 01:30:32;;;;;;;8.73;5.93;;;2.30;82.70;;;;;;5012059;28;20325;-67
2020/12/04 01:32:58;;;;;;;11.98;6.65;;;2.50;81.80;;;;;;5015796;28;20092;-67
2020/12/04 01:35:24;;;;;;;10.50;7.28;;;2.50;82.10;;;;;;5015610;28;20026;-66
2020/12/04 01:37:50;;;;;;;10.85;6.93;;;2.60;81.90;;;;;;5014561;28;20121;-67
2020/12/04 01:40:19;;;;;;;10.48;6.40;;;2.60;82.20;;;;;;5014309;28;20120;-67
2020/12/04 01:42:45;;;;;;;12.10;6.70;;;2.60;82.80;;;;;;5015089;28;20026;-67
2020/12/04 01:45:11;;;;;;;10.45;6.55;;;2.50;83.00;;;;;;5015315;28;20021;-66
2020/12/04 01:47:37;;;;;;;10.48;6.70;;;2.50;83.50;;;;;;5008591;28;20427;-67
2020/12/04 01:50:03;;;;;;;8.88;6.65;;;2.50;83.60;;;;;;5013895;28;20026;-66
2020/12/04 01:52:30;;;;;;;9.85;6.82;;;2.50;83.60;;;;;;5014010;28;20030;-67
2020/12/04 01:54:56;;;;;;;10.23;6.80;;;2.40;84.10;;;;;;5013744;28;20184;-67
2020/12/04 01:57:27;;;;;;;10.77;7.18;;;2.40;84.70;;;;;;5014427;28;20048;-67
2020/12/04 01:59:53;;;;;;;9.50;6.43;;;2.30;84.80;;;;;;5013026;28;20018;-67
2020/12/04 02:02:22;;;;;;;12.18;6.82;;;2.30;84.80;;;;;;5012107;28;20037;-67
2020/12/04 02:04:49;;;;;;;10.30;6.22;;;2.30;85.20;;;;;;5012132;28;20022;-67
2020/12/04 02:07:52;;;;;;;9.52;6.72;;;2.30;85.00;;;;;;5015380;28;20101;-67
2020/12/04 02:10:28;;;;;;;11.55;6.97;;;2.30;84.90;;;;;;4993078;28;20431;-67
2020/12/04 02:12:58;;;;;;;10.57;6.30;;;2.40;83.60;;;;;;5015444;28;20477;-67
2020/12/04 02:15:25;;;;;;;8.60;5.75;;;2.50;83.20;;;;;;5013354;28;20026;-67
2020/12/04 02:17:58;;;;;;;9.27;6.18;;;2.60;82.60;;;;;;5013056;28;20026;-68
2020/12/04 02:20:31;;;;;;;8.70;5.82;;;2.70;82.40;;;;;;5003811;28;20042;-68
2020/12/04 02:22:57;;;;;;;9.75;6.15;;;2.70;82.70;;;;;;5013311;28;20030;-68
2020/12/04 02:25:23;;;;;;;9.23;6.15;;;2.70;82.40;;;;;;5009810;28;20026;-67
2020/12/04 02:27:50;;;;;;;8.73;5.95;;;2.60;82.60;;;;;;5012390;28;20053;-67
2020/12/04 02:30:30;;;;;;;10.65;6.53;;;2.60;82.60;;;;;;5013153;28;20034;-67
2020/12/04 02:32:57;;;;;;;13.43;6.90;;;2.60;83.10;;;;;;5013335;28;20120;-67
2020/12/04 02:35:23;;;;;;;8.80;6.07;;;2.50;82.80;;;;;;5013499;28;20022;-67
2020/12/04 02:37:49;;;;;;;9.13;6.32;;;2.50;83.10;;;;;;5012992;28;20042;-67
2020/12/04 02:40:15;;;;;;;9.00;6.28;;;2.50;83.20;;;;;;5013569;28;20038;-66
2020/12/04 02:42:42;;;;;;;10.23;6.60;;;2.40;83.40;;;;;;5013150;28;20029;-67
2020/12/04 02:45:12;;;;;;;10.05;6.57;;;2.40;83.40;;;;;;5011969;28;20037;-66
2020/12/04 02:47:39;;;;;;;12.02;7.78;;;2.40;83.60;;;;;;5010831;28;20057;-66
2020/12/04 02:50:06;;;;;;;9.75;6.90;;;2.30;84.20;;;;;;5012225;28;20033;-66
2020/12/04 02:52:32;;;;;;;10.38;7.15;;;2.20;84.40;;;;;;5015345;28;20327;-66
2020/12/04 02:54:58;;;;;;;11.85;7.35;;;2.20;84.40;;;;;;5014193;28;20025;-67
2020/12/04 02:57:23;;;;;;;10.93;7.60;;;2.10;84.70;;;;;;5013573;28;20034;-66
2020/12/04 02:59:49;;;;;;;12.48;8.25;;;2.00;85.20;;;;;;5012094;28;20048;-66
2020/12/04 03:02:15;;;;;;;12.25;7.65;;;1.90;85.70;;;;;;5007640;28;20415;-66
2020/12/04 03:04:43;;;;;;;11.07;7.68;;;1.90;85.70;;;;;;5011255;28;20026;-66
2020/12/04 03:07:10;;;;;;;10.93;7.95;;;1.90;85.80;;;;;;5013524;28;20133;-66
2020/12/04 03:09:36;;;;;;;11.65;7.00;;;1.90;85.60;;;;;;5013629;28;20032;-66
2020/12/04 03:12:02;;;;;;;11.68;7.45;;;1.90;85.30;;;;;;5013765;28;20088;-66
2020/12/04 03:14:28;;;;;;;11.18;7.18;;;2.00;85.10;;;;;;5027871;28;20042;-66
2020/12/04 03:16:54;;;;;;;11.68;7.95;;;2.00;85.20;;;;;;5012044;28;20033;-67
2020/12/04 03:19:20;;;;;;;16.35;8.00;;;1.90;85.50;;;;;;5012791;28;20439;-68
2020/12/04 03:21:45;;;;;;;10.88;8.00;;;1.90;85.70;;;;;;5017591;28;20334;-68
2020/12/04 03:24:14;;;;;;;11.88;7.68;;;2.00;85.50;;;;;;5018932;28;20030;-68
2020/12/04 03:26:42;;;;;;;11.32;7.70;;;2.00;85.40;;;;;;5016575;28;20025;-68
2020/12/04 03:29:08;;;;;;;11.55;7.57;;;2.00;85.50;;;;;;5016458;28;20057;-70
2020/12/04 03:31:33;;;;;;;12.95;7.82;;;2.00;85.10;;;;;;5017016;28;20374;-68
2020/12/04 03:34:02;;;;;;;11.32;7.63;;;2.10;84.80;;;;;;5017515;28;20447;-68
2020/12/04 03:36:31;;;;;;;11.90;7.47;;;2.20;84.50;;;;;;5016868;28;20100;-69
2020/12/04 03:38:57;;;;;;;8.77;6.18;;;2.30;84.00;;;;;;5016671;28;20041;-68
2020/12/04 03:41:25;;;;;;;10.07;6.45;;;2.40;83.60;;;;;;5016107;28;20407;-68
2020/12/04 03:43:50;;;;;;;10.50;7.15;;;2.40;83.50;;;;;;5017661;28;20083;-69
2020/12/04 03:46:16;;;;;;;9.45;6.43;;;2.40;83.80;;;;;;5004742;28;20113;-68
2020/12/04 03:48:42;;;;;;;13.93;7.30;;;2.40;83.50;;;;;;5015716;28;20054;-68
2020/12/04 03:51:09;;;;;;;9.82;6.47;;;2.40;83.60;;;;;;5014724;28;20028;-67
2020/12/04 03:53:37;;;;;;;10.02;6.63;;;2.40;83.50;;;;;;5014135;28;20155;-68
2020/12/04 03:56:03;;;;;;;10.30;7.00;;;2.60;83.10;;;;;;5017747;28;20362;-68
2020/12/04 03:58:31;;;;;;;12.38;7.13;;;2.50;83.60;;;;;;5016082;28;20049;-68
2020/12/04 04:00:57;;;;;;;9.25;6.10;;;2.50;83.60;;;;;;5014376;28;20022;-68
2020/12/04 04:03:23;;;;;;;10.75;6.82;;;2.50;83.70;;;;;;5014362;28;20339;-68
2020/12/04 04:05:51;;;;;;;10.32;6.65;;;2.50;83.50;;;;;;5016885;28;20018;-69
2020/12/04 04:08:26;;;;;;;9.98;6.68;;;2.60;83.10;;;;;;5019865;28;20038;-68
2020/12/04 04:10:55;;;;;;;13.35;5.53;;;2.60;82.60;;;;;;5016695;28;20088;-68
2020/12/04 04:13:23;;;;;;;10.55;6.05;;;3.00;80.90;;;;;;5015437;28;20042;-68
2020/12/04 04:15:49;;;;;;;10.60;5.95;;;3.00;81.10;;;;;;5007360;28;20040;-67
2020/12/04 04:18:20;;;;;;;8.82;5.93;;;3.00;81.10;;;;;;5015808;28;20026;-68
2020/12/04 04:20:46;;;;;;;15.07;6.68;;;2.90;82.20;;;;;;5016027;28;20304;-69
2020/12/04 04:23:12;;;;;;;10.70;6.32;;;2.70;83.60;;;;;;5015490;28;20022;-68
2020/12/04 04:25:38;;;;;;;10.43;6.43;;;2.60;84.30;;;;;;5017195;28;20026;-68
2020/12/04 04:28:10;;;;;;;10.52;6.18;;;2.40;84.60;;;;;;5013836;28;20085;-68
2020/12/04 04:30:38;;;;;;;8.13;5.57;;;2.60;83.40;;;;;;5015072;28;20037;-69
2020/12/04 04:33:04;;;;;;;26.33;15.40;;;2.60;83.00;;;;;;5015531;28;20033;-68
2020/12/04 04:35:31;;;;;;;15.05;9.23;;;2.60;83.50;;;;;;5015218;28;20062;-69
2020/12/04 04:38:02;;;;;;;8.60;5.68;;;2.70;82.80;;;;;;5012868;28;20030;-69
2020/12/04 04:40:28;;;;;;;9.45;6.30;;;2.80;82.20;;;;;;5015971;28;20061;-68
2020/12/04 04:43:15;;;;;;;9.85;6.43;;;2.90;81.60;;;;;;5015258;28;20021;-69
2020/12/04 04:45:47;;;;;;;50.58;27.33;;;3.00;81.40;;;;;;5014000;28;20033;-68
2020/12/04 04:48:19;;;;;;;11.43;6.55;;;3.00;81.40;;;;;;5014782;28;20049;-68
2020/12/04 04:50:46;;;;;;;9.80;5.25;;;3.10;81.40;;;;;;5014880;28;20022;-68
2020/12/04 04:53:16;;;;;;;9.10;5.82;;;3.10;80.80;;;;;;5015624;28;20026;-69
2020/12/04 04:55:42;;;;;;;6.82;4.40;;;3.20;81.00;;;;;;5016404;28;20093;-68
2020/12/04 04:58:09;;;;;;;8.43;4.50;;;3.20;80.20;;;;;;5016599;28;20041;-68
2020/12/04 05:00:37;;;;;;;7.88;4.72;;;3.30;80.20;;;;;;5011795;28;20037;-68
2020/12/04 05:03:05;;;;;;;7.25;4.57;;;3.50;79.20;;;;;;5015065;28;20072;-68
2020/12/04 05:05:47;;;;;;;7.40;4.43;;;3.70;78.70;;;;;;5015325;28;20030;-68
2020/12/04 05:08:17;;;;;;;7.50;4.55;;;3.70;79.20;;;;;;5012698;28;20079;-68
2020/12/04 05:10:43;;;;;;;10.65;4.70;;;3.60;79.10;;;;;;5010418;28;20030;-68
2020/12/04 05:13:10;;;;;;;9.07;5.75;;;3.60;80.20;;;;;;5014169;28;20327;-68
2020/12/04 05:15:36;;;;;;;8.80;5.72;;;3.40;80.50;;;;;;5012476;28;20037;-68
2020/12/04 05:18:20;;;;;;;9.02;5.05;;;3.30;80.70;;;;;;5011282;28;20018;-68
2020/12/04 05:20:51;;;;;;;7.18;4.90;;;3.30;81.50;;;;;;5013596;28;20111;-69
2020/12/04 05:23:17;;;;;;;8.60;4.38;;;3.20;82.20;;;;;;5013677;28;21751;-68
2020/12/04 05:25:48;;;;;;;12.23;7.47;;;3.20;82.50;;;;;;5016122;28;20030;-68
2020/12/04 05:28:19;;;;;;;7.85;4.82;;;3.00;83.10;;;;;;5015269;28;20022;-69
2020/12/04 05:31:06;;;;;;;6.43;3.97;;;3.00;83.10;;;;;;5012854;28;20018;-68
2020/12/04 05:33:32;;;;;;;6.60;4.13;;;2.90;83.40;;;;;;5013060;28;20022;-69
2020/12/04 05:36:02;;;;;;;8.35;5.07;;;3.00;82.90;;;;;;5030352;28;20446;-69
2020/12/04 05:38:28;;;;;;;8.55;4.20;;;3.00;82.90;;;;;;5018051;28;20053;-68
2020/12/04 05:41:07;;;;;;;8.13;4.22;;;3.00;82.40;;;;;;5011469;28;20386;-69
2020/12/04 05:43:37;;;;;;;6.72;4.22;;;3.00;83.40;;;;;;5014424;28;20060;-68
2020/12/04 05:46:17;;;;;;;7.43;4.53;;;2.90;83.80;;;;;;5009826;28;20029;-68
2020/12/04 05:48:54;;;;;;;6.35;3.70;;;2.80;84.60;;;;;;5015106;28;20045;-69
2020/12/04 05:51:23;;;;;;;7.72;4.10;;;2.80;84.40;;;;;;5024472;28;20057;-69
2020/12/04 05:53:53;;;;;;;7.35;4.97;;;2.80;84.70;;;;;;5017556;28;20021;-68
2020/12/04 05:56:21;;;;;;;8.32;4.88;;;2.80;84.40;;;;;;5018761;28;20036;-68
2020/12/04 05:58:48;;;;;;;7.47;4.32;;;2.80;83.80;;;;;;5014140;28;20033;-69
2020/12/04 06:01:17;;;;;;;8.70;4.03;;;2.90;83.60;;;;;;5009681;28;20022;-68
2020/12/04 06:03:48;;;;;;;7.13;4.30;;;2.90;83.60;;;;;;5009561;28;20064;-69
2020/12/04 06:06:28;;;;;;;7.60;4.32;;;2.80;84.20;;;;;;5012248;28;20269;-69
2020/12/04 06:09:03;;;;;;;7.53;4.43;;;2.80;84.50;;;;;;5010202;28;20049;-68
2020/12/04 06:11:38;;;;;;;8.25;4.50;;;2.80;84.20;;;;;;5014392;28;20033;-68
2020/12/04 06:14:25;;;;;;;6.93;4.57;;;2.80;83.90;;;;;;5010835;28;20386;-68
2020/12/04 06:17:02;;;;;;;7.53;4.10;;;2.90;82.60;;;;;;5007984;28;20414;-69
2020/12/04 06:19:28;;;;;;;6.35;4.22;;;2.90;82.40;;;;;;5009892;28;20423;-68
2020/12/04 06:22:02;;;;;;;6.50;4.20;;;3.00;82.30;;;;;;5012183;28;20036;-69
2020/12/04 06:24:29;;;;;;;8.80;5.57;;;2.90;82.50;;;;;;5011112;28;20028;-68
2020/12/04 06:26:58;;;;;;;8.35;4.60;;;2.90;83.20;;;;;;5011411;28;20136;-68
2020/12/04 06:29:26;;;;;;;7.25;4.32;;;2.90;83.80;;;;;;5010858;28;20056;-69
2020/12/04 06:31:52;;;;;;;7.95;4.40;;;3.00;83.40;;;;;;5009628;28;20079;-68
2020/12/04 06:34:20;;;;;;;10.30;4.38;;;3.00;83.10;;;;;;5010841;28;20030;-69
2020/12/04 06:36:49;;;;;;;7.53;4.68;;;2.90;83.70;;;;;;5011348;28;20030;-68
2020/12/04 06:39:30;;;;;;;8.00;4.95;;;2.90;84.20;;;;;;5007948;28;20318;-68
2020/12/04 06:42:02;;;;;;;6.70;4.45;;;2.80;84.20;;;;;;5009230;28;20029;-68
2020/12/04 06:44:31;;;;;;;7.15;4.28;;;2.80;84.50;;;;;;5009471;28;20026;-68
2020/12/04 06:46:59;;;;;;;6.07;3.80;;;2.80;84.60;;;;;;5009509;28;20014;-68
2020/12/04 06:49:42;;;;;;;7.18;4.63;;;2.90;84.00;;;;;;5006165;28;20065;-68
2020/12/04 06:52:16;;;;;;;7.20;4.10;;;2.80;85.80;;;;;;5011097;28;20050;-68
2020/12/04 06:54:47;;;;;;;6.07;4.10;;;2.70;84.70;;;;;;5008885;28;20025;-69
2020/12/04 06:57:15;;;;;;;7.45;5.05;;;2.80;84.30;;;;;;5008763;28;20026;-68
2020/12/04 06:59:44;;;;;;;8.75;5.13;;;2.80;85.00;;;;;;5010789;28;20419;-68
2020/12/04 07:02:17;;;;;;;8.57;5.03;;;2.70;85.80;;;;;;5008700;28;20038;-68
2020/12/04 07:04:47;;;;;;;7.93;5.20;;;2.70;85.70;;;;;;5011077;28;20029;-68
2020/12/04 07:07:26;;;;;;;8.52;4.90;;;2.70;85.70;;;;;;5010691;28;20411;-68
2020/12/04 07:09:57;;;;;;;6.63;4.63;;;2.70;85.60;;;;;;5011387;28;20038;-68
2020/12/04 07:12:28;;;;;;;8.45;5.18;;;2.70;85.90;;;;;;5012653;28;20026;-68
2020/12/04 07:15:02;;;;;;;7.55;4.05;;;2.70;85.30;;;;;;5014697;28;20038;-69
2020/12/04 07:17:30;;;;;;;5.45;3.60;;;2.80;85.00;;;;;;5014305;28;20060;-69
2020/12/04 07:19:57;;;;;;;7.38;4.43;;;3.10;83.50;;;;;;5013928;28;20042;-69
2020/12/04 07:22:24;;;;;;;6.07;4.18;;;3.10;84.00;;;;;;5014868;28;20014;-69
2020/12/04 07:24:52;;;;;;;10.65;5.53;;;3.20;83.60;;;;;;5012353;28;20110;-69
2020/12/04 07:27:24;;;;;;;9.15;5.88;;;3.10;84.30;;;;;;5015100;28;20833;-69
2020/12/04 07:29:50;;;;;;;9.35;5.28;;;2.90;86.20;;;;;;5013500;28;20056;-69
2020/12/04 07:32:20;;;;;;;9.52;6.07;;;2.80;86.70;;;;;;5013218;28;20018;-69
2020/12/04 07:34:46;;;;;;;11.43;6.35;;;2.60;86.80;;;;;;5012681;28;20435;-69
2020/12/04 07:37:12;;;;;;;9.98;5.95;;;2.60;86.80;;;;;;5012290;28;20049;-68
2020/12/04 07:39:40;;;;;;;8.52;5.72;;;2.60;87.30;;;;;;5013975;28;20430;-68
2020/12/04 07:42:07;;;;;;;11.13;6.07;;;2.60;86.70;;;;;;5015732;28;20307;-68
2020/12/04 07:44:42;;;;;;;8.60;5.88;;;2.70;86.00;;;;;;5016688;28;20030;-69
2020/12/04 07:47:13;;;;;;;7.50;4.97;;;2.80;85.70;;;;;;4997899;28;20304;-69
2020/12/04 07:49:58;;;;;;;9.57;5.70;;;2.90;85.10;;;;;;5015447;28;20545;-69
2020/12/04 07:52:26;;;;;;;8.38;5.45;;;2.90;85.40;;;;;;5018514;28;20450;-69
2020/12/04 07:55:03;;;;;;;9.13;5.88;;;3.00;85.40;;;;;;5018457;28;20101;-69
2020/12/04 07:57:54;;;;;;;7.85;5.35;;;3.00;86.20;;;;;;5017501;28;20026;-69
2020/12/04 08:00:19;;;;;;;10.55;6.05;;;3.00;86.70;;;;;;5007611;28;20292;-69
2020/12/04 08:02:46;;;;;;;11.10;6.43;;;3.00;85.80;;;;;;5017255;28;20025;-69
2020/12/04 08:05:27;;;;;;;10.02;5.97;;;3.00;85.20;;;;;;5015946;28;20033;-69
2020/12/04 08:07:55;;;;;;;8.93;5.53;;;3.00;84.10;;;;;;5018104;28;20026;-69
2020/12/04 08:10:21;;;;;;;10.95;6.70;;;3.20;82.50;;;;;;5006269;28;20037;-69
2020/12/04 08:12:50;;;;;;;9.23;6.22;;;3.30;81.80;;;;;;5008588;28;20112;-69
2020/12/04 08:15:18;;;;;;;12.90;6.80;;;3.30;81.20;;;;;;5017861;28;20022;-70
2020/12/04 08:17:44;;;;;;;10.75;6.60;;;3.20;81.50;;;;;;5014664;28;20037;-69
2020/12/04 08:20:17;;;;;;;11.07;6.35;;;3.10;82.20;;;;;;5017392;28;20034;-70
2020/12/04 08:22:52;;;;;;;13.67;7.00;;;3.10;82.60;;;;;;5017862;28;20022;-70
2020/12/04 08:25:25;;;;;;;12.13;7.45;;;3.10;83.40;;;;;;5018150;28;20261;-70
2020/12/04 08:27:52;;;;;;;11.35;6.50;;;3.10;83.70;;;;;;5017371;28;20026;-69
2020/12/04 08:30:21;;;;;;;10.45;5.65;;;3.30;82.70;;;;;;5016502;28;20115;-69
2020/12/04 08:32:54;;;;;;;9.70;5.75;;;3.40;82.90;;;;;;5016657;28;20030;-69
2020/12/04 08:35:21;;;;;;;7.75;5.20;;;3.50;83.00;;;;;;5016809;28;20030;-70
2020/12/04 08:37:48;;;;;;;10.70;5.93;;;3.60;82.70;;;;;;5017620;28;20419;-69
2020/12/04 08:40:32;;;;;;;14.10;6.90;;;3.70;83.30;;;;;;5011856;28;20030;-69
2020/12/04 08:43:20;;;;;;;12.38;6.78;;;3.70;83.10;;;;;;5017481;28;20379;-69
2020/12/04 08:45:51;;;;;;;11.13;6.10;;;3.90;80.20;;;;;;5015252;28;20034;-69
2020/12/04 08:48:22;;;;;;;11.15;6.43;;;4.10;79.00;;;;;;5015591;28;20120;-70
2020/12/04 08:50:59;;;;;;;9.00;5.85;;;4.20;79.10;;;;;;5016849;28;20048;-69
2020/12/04 08:53:26;;;;;;;7.28;4.95;;;4.20;78.90;;;;;;5017476;28;20055;-69
2020/12/04 08:55:53;;;;;;;9.02;4.90;;;4.30;80.00;;;;;;5016296;28;20025;-69
2020/12/04 08:58:22;;;;;;;8.90;4.88;;;4.30;79.20;;;;;;5015886;28;20026;-70
2020/12/04 09:00:49;;;;;;;9.13;5.90;;;4.40;79.20;;;;;;5015827;28;20079;-69
2020/12/04 09:03:26;;;;;;;9.02;5.65;;;4.40;78.90;;;;;;5016310;28;20433;-69
2020/12/04 09:05:53;;;;;;;28.02;11.02;;;4.40;78.50;;;;;;5016991;28;20029;-70
2020/12/04 09:08:21;;;;;;;11.18;7.13;;;4.40;78.20;;;;;;5017052;28;20049;-70
2020/12/04 09:10:47;;;;;;;13.20;7.63;;;4.30;78.50;;;;;;5015327;28;20026;-70
2020/12/04 09:13:15;;;;;;;10.82;6.18;;;4.20;78.50;;;;;;4997679;28;20416;-69
2020/12/04 09:15:40;;;;;;;10.82;6.07;;;4.10;78.90;;;;;;5000977;28;20485;-69
2020/12/04 09:18:09;;;;;;;11.10;7.25;;;4.10;79.20;;;;;;5015288;28;20117;-70
2020/12/04 09:20:35;;;;;;;16.05;8.73;;;4.20;79.20;;;;;;5015314;28;20033;-69
2020/12/04 09:23:04;;;;;;;13.57;9.02;;;4.30;78.80;;;;;;5016864;28;20423;-69
2020/12/04 09:25:31;;;;;;;15.55;7.03;;;4.20;78.70;;;;;;5016520;28;20319;-70
2020/12/04 09:28:00;;;;;;;11.02;6.22;;;4.20;78.80;;;;;;5016673;28;20022;-70
2020/12/04 09:30:28;;;;;;;12.10;8.00;;;4.10;79.30;;;;;;5015876;28;20034;-70
2020/12/04 09:32:54;;;;;;;12.95;7.32;;;4.10;79.60;;;;;;5013616;28;20041;-70
2020/12/04 09:35:20;;;;;;;13.48;7.47;;;4.00;79.70;;;;;;5016637;28;20030;-70
2020/12/04 09:37:47;;;;;;;11.13;7.25;;;3.90;80.40;;;;;;5016455;28;20026;-69
2020/12/04 09:40:19;;;;;;;13.70;8.02;;;4.00;80.00;;;;;;5016459;28;20061;-70
2020/12/04 09:42:46;;;;;;;12.63;8.55;;;3.90;80.20;;;;;;5015206;28;20431;-69
2020/12/04 09:45:15;;;;;;;11.15;7.35;;;3.90;80.60;;;;;;5016409;28;20533;-70
2020/12/04 09:47:41;;;;;;;11.90;7.95;;;4.00;80.30;;;;;;5012181;28;20042;-70
2020/12/04 09:50:11;;;;;;;10.60;7.22;;;4.00;80.00;;;;;;5016207;28;20026;-70
2020/12/04 09:52:38;;;;;;;13.30;7.60;;;4.00;80.60;;;;;;5016367;28;20407;-70
2020/12/04 09:55:11;;;;;;;12.93;7.78;;;3.90;80.80;;;;;;5016417;28;20366;-69
2020/12/04 09:57:36;;;;;;;10.68;7.07;;;3.90;81.20;;;;;;5015412;28;20379;-70
2020/12/04 10:00:06;;;;;;;10.90;7.53;;;4.00;81.50;;;;;;5015907;28;20068;-69
2020/12/04 10:02:31;;;;;;;12.30;7.00;;;4.00;81.20;;;;;;5014986;28;20080;-69
2020/12/04 10:04:57;;;;;;;15.48;8.07;;;4.00;80.80;;;;;;5016037;28;20410;-69
2020/12/04 10:07:25;;;;;;;12.23;7.72;;;4.00;81.10;;;;;;5016088;28;20034;-69
2020/12/04 10:09:51;;;;;;;12.45;7.22;;;4.00;81.00;;;;;;5014483;28;20037;-71
2020/12/04 10:12:19;;;;;;;12.07;8.13;;;3.90;81.30;;;;;;5010924;28;20117;-71
2020/12/04 10:14:47;;;;;;;11.55;8.38;;;3.90;81.60;;;;;;5014932;28;20427;-70
2020/12/04 10:17:16;;;;;;;13.50;9.07;;;3.80;82.20;;;;;;5007620;28;20101;-70
2020/12/04 10:19:47;;;;;;;14.95;8.75;;;3.70;82.30;;;;;;5015678;28;20414;-70
2020/12/04 10:22:19;;;;;;;12.57;8.55;;;3.60;83.00;;;;;;5014526;28;20171;-70
2020/12/04 10:24:44;;;;;;;12.10;8.18;;;3.50;83.40;;;;;;5015589;28;20045;-70
2020/12/04 10:27:13;;;;;;;12.38;8.00;;;3.60;83.20;;;;;;5016099;28;20053;-71
2020/12/04 10:29:38;;;;;;;12.93;7.97;;;3.80;82.70;;;;;;5015306;28;20045;-70
2020/12/04 10:32:04;;;;;;;11.85;7.78;;;3.90;82.60;;;;;;5014682;28;20314;-70
2020/12/04 10:34:30;;;;;;;13.63;8.45;;;4.00;81.80;;;;;;5015706;28;20067;-70
2020/12/04 10:36:55;;;;;;;15.55;9.52;;;4.10;81.80;;;;;;5015523;28;20057;-70
2020/12/04 10:39:21;;;;;;;13.68;8.52;;;4.10;82.20;;;;;;5015539;28;20034;-70
2020/12/04 10:41:47;;;;;;;12.50;8.35;;;4.10;82.40;;;;;;5015591;28;20631;-70
2020/12/04 10:44:13;;;;;;;13.35;8.90;;;4.10;82.60;;;;;;5015495;28;20030;-70
2020/12/04 10:46:39;;;;;;;15.70;9.57;;;4.10;82.10;;;;;;5014267;28;20334;-71
2020/12/04 10:49:05;;;;;;;14.65;9.32;;;4.10;82.30;;;;;;5015118;28;20117;-70
2020/12/04 10:51:31;;;;;;;14.45;9.05;;;4.10;82.30;;;;;;5014553;28;20025;-70
2020/12/04 10:54:00;;;;;;;14.13;8.77;;;4.10;82.10;;;;;;5014951;28;20028;-70
2020/12/04 10:56:25;;;;;;;14.98;9.63;;;4.20;81.70;;;;;;5015602;28;20034;-70
2020/12/04 10:58:53;;;;;;;15.70;9.38;;;4.20;81.80;;;;;;5015401;28;20116;-70
2020/12/04 11:02:08;;;;;;;20.17;11.02;;;4.20;82.20;;;;;;5014043;28;20026;-70
2020/12/04 11:07:00;;;;;;;21.42;10.32;;;4.50;81.80;;;;;;5015766;28;20053;-70
2020/12/04 11:09:32;;;;;;;13.82;9.45;;;4.50;81.30;;;;;;5014724;28;20112;-70
2020/12/04 11:11:57;;;;;;;14.55;9.23;;;4.50;81.80;;;;;;5016683;28;20018;-71
2020/12/04 11:14:26;;;;;;;13.90;8.68;;;4.50;81.60;;;;;;5015369;28;20026;-70
2020/12/04 11:16:51;;;;;;;13.02;8.88;;;4.50;81.00;;;;;;5014118;28;20026;-70
2020/12/04 11:19:17;;;;;;;18.85;8.52;;;4.60;81.00;;;;;;5015111;28;20040;-70
2020/12/04 11:21:43;;;;;;;19.17;12.13;;;4.60;80.70;;;;;;5014905;28;20411;-71
2020/12/04 11:24:08;;;;;;;16.58;11.07;;;4.70;80.60;;;;;;5015103;28;20022;-70
2020/12/04 11:26:34;;;;;;;16.45;9.45;;;4.50;81.50;;;;;;5015418;28;20026;-70
2020/12/04 11:29:00;;;;;;;16.55;9.98;;;4.50;81.10;;;;;;5012685;28;20389;-70
2020/12/04 11:31:26;;;;;;;15.32;9.35;;;4.40;81.50;;;;;;5007687;28;20222;-70
2020/12/04 11:33:54;;;;;;;15.52;9.73;;;4.30;81.70;;;;;;5013048;28;20025;-70
2020/12/04 11:36:23;;;;;;;12.68;9.27;;;4.30;82.40;;;;;;5014561;28;20100;-70
2020/12/04 11:38:48;;;;;;;18.60;9.82;;;4.30;82.00;;;;;;5014306;28;20030;-70
2020/12/04 11:41:21;;;;;;;15.75;9.57;;;4.30;81.80;;;;;;5015433;28;20025;-70
2020/12/04 11:43:50;;;;;;;13.02;8.43;;;4.20;81.70;;;;;;5017639;28;20354;-70
2020/12/04 11:46:15;;;;;;;17.33;10.50;;;4.20;81.80;;;;;;5017245;28;20022;-70
2020/12/04 11:48:41;;;;;;;13.73;8.73;;;4.20;81.80;;;;;;5011460;28;20046;-70
2020/12/04 11:51:06;;;;;;;16.20;9.60;;;4.20;82.20;;;;;;5007914;28;20370;-70
2020/12/04 11:53:32;;;;;;;20.52;12.07;;;4.30;81.80;;;;;;5016834;28;20025;-70
2020/12/04 11:55:58;;;;;;;14.65;9.18;;;4.30;81.30;;;;;;5017772;28;20030;-70
2020/12/04 11:58:23;;;;;;;18.13;11.05;;;4.40;80.60;;;;;;5016214;28;20069;-70
2020/12/04 12:00:49;;;;;;;14.77;8.82;;;4.40;80.50;;;;;;5018616;28;20200;-70
2020/12/04 12:03:15;;;;;;;18.38;10.68;;;4.40;81.50;;;;;;5016817;28;20025;-70
2020/12/04 12:05:40;;;;;;;12.73;8.05;;;4.50;80.30;;;;;;5017188;28;20064;-70
2020/12/04 12:08:06;;;;;;;12.95;7.47;;;4.50;79.50;;;;;;5017234;28;20018;-70
2020/12/04 12:10:35;;;;;;;9.82;6.20;;;4.50;80.00;;;;;;5016515;28;20092;-70
2020/12/04 12:13:02;;;;;;;14.18;8.85;;;4.60;79.20;;;;;;5015510;28;20414;-70
2020/12/04 12:15:27;;;;;;;17.27;9.20;;;4.60;82.80;;;;;;5015555;28;20057;-70
2020/12/04 12:17:53;;;;;;;11.27;7.53;;;4.50;84.10;;;;;;5016410;28;20419;-70
2020/12/04 12:20:19;;;;;;;16.67;9.75;;;4.40;81.50;;;;;;5016315;28;20068;-70
2020/12/04 12:22:44;;;;;;;16.02;11.13;;;4.40;82.10;;;;;;5016994;28;20097;-70
2020/12/04 12:25:10;;;;;;;18.17;11.85;;;4.40;84.00;;;;;;5030259;28;20026;-70
2020/12/04 12:27:36;;;;;;;21.00;11.63;;;4.20;85.30;;;;;;5017250;28;20034;-70
2020/12/04 12:30:04;;;;;;;16.58;11.48;;;4.00;86.40;;;;;;5017029;28;20022;-70
2020/12/04 12:32:32;;;;;;;19.17;11.18;;;3.90;87.10;;;;;;5009474;28;20438;-69
2020/12/04 12:35:02;;;;;;;20.75;12.95;;;3.80;88.10;;;;;;5015047;28;20053;-69
2020/12/04 12:37:31;;;;;;;17.60;12.50;;;3.60;89.00;;;;;;5018296;28;20304;-71
2020/12/04 12:39:57;;;;;;;19.90;13.10;;;3.50;89.10;;;;;;5015754;28;20109;-71
2020/12/04 12:42:23;;;;;;;18.08;11.43;;;3.40;89.40;;;;;;5016761;28;20022;-70
2020/12/04 12:44:49;;;;;;;29.77;16.05;;;3.40;89.20;;;;;;5011787;28;20503;-71
2020/12/04 12:47:14;;;;;;;19.50;11.98;;;3.40;89.20;;;;;;5018138;28;20462;-70
2020/12/04 12:49:41;;;;;;;18.45;11.80;;;3.40;89.40;;;;;;5018523;28;20540;-71
2020/12/04 12:52:08;;;;;;;25.75;14.50;;;3.50;89.40;;;;;;5017724;28;20060;-71
2020/12/04 12:54:34;;;;;;;17.80;12.02;;;3.50;89.20;;;;;;5016084;28;20111;-71
2020/12/04 12:57:00;;;;;;;19.48;12.13;;;3.50;90.30;;;;;;5014901;28;20038;-71
2020/12/04 12:59:26;;;;;;;21.95;13.45;;;3.30;91.10;;;;;;5015350;28;20034;-71